sensor_id;sensor_type;location;lat;lon;timestamp;P1;durP1;ratioP1;P2;durP2;ratioP2
19605;SDS011;9950;50.168;8.210;2024-01-15T00:01:14;24.65;;;9.52;;
19605;SDS011;9950;50.168;8.210;2024-01-15T00:03:41;19.88;;;8.45;;
19605;SDS011;9950;50.168;8.210;2024-01-15T00:06:08;23.33;;;7.47;;
19605;SDS011;9950;50.168;8.210;2024-01-15T00:08:35;23.52;;;8.57;;
19605;SDS011;9950;50.168;8.210;2024-01-15T00:11:02;19.05;;;8.18;;
19605;SDS011;9950;50.168;8.210;2024-01-15T00:13:29;23.55;;;8.95;;
19605;SDS011;9950;50.168;8.210;2024-01-15T00:15:58;20.23;;;8.43;;
19605;SDS011;9950;50.168;8.210;2024-01-15T00:18:25;21.33;;;8.90;;
19605;SDS011;9950;50.168;8.210;2024-01-15T00:20:52;20.95;;;8.20;;
19605;SDS011;9950;50.168;8.210;2024-01-15T00:23:19;20.17;;;8.57;;
19605;SDS011;9950;50.168;8.210;2024-01-15T00:25:46;22.08;;;8.85;;
19605;SDS011;9950;50.168;8.210;2024-01-15T00:28:13;24.63;;;9.18;;
19605;SDS011;9950;50.168;8.210;2024-01-15T00:30:41;26.45;;;9.55;;
19605;SDS011;9950;50.168;8.210;2024-01-15T00:33:09;24.25;;;9.85;;
19605;SDS011;9950;50.168;8.210;2024-01-15T00:35:38;27.35;;;10.20;;
19605;SDS011;9950;50.168;8.210;2024-01-15T00:38:05;25.42;;;9.88;;
19605;SDS011;9950;50.168;8.210;2024-01-15T00:40:32;28.85;;;10.95;;
19605;SDS011;9950;50.168;8.210;2024-01-15T00:42:59;27.35;;;9.98;;
19605;SDS011;9950;50.168;8.210;2024-01-15T00:45:27;26.27;;;10.13;;
19605;SDS011;9950;50.168;8.210;2024-01-15T00:47:54;29.55;;;10.88;;
19605;SDS011;9950;50.168;8.210;2024-01-15T00:50:22;29.35;;;11.25;;
19605;SDS011;9950;50.168;8.210;2024-01-15T00:52:50;27.10;;;10.43;;
19605;SDS011;9950;50.168;8.210;2024-01-15T00:55:17;34.25;;;11.00;;
19605;SDS011;9950;50.168;8.210;2024-01-15T00:57:44;27.05;;;10.60;;
19605;SDS011;9950;50.168;8.210;2024-01-15T01:00:11;36.08;;;11.55;;
19605;SDS011;9950;50.168;8.210;2024-01-15T01:02:39;30.50;;;10.65;;
19605;SDS011;9950;50.168;8.210;2024-01-15T01:05:06;30.20;;;11.50;;
19605;SDS011;9950;50.168;8.210;2024-01-15T01:07:35;29.35;;;11.65;;
19605;SDS011;9950;50.168;8.210;2024-01-15T01:10:02;28.15;;;11.50;;
19605;SDS011;9950;50.168;8.210;2024-01-15T01:12:30;24.75;;;11.02;;
19605;SDS011;9950;50.168;8.210;2024-01-15T01:14:57;25.58;;;10.77;;
19605;SDS011;9950;50.168;8.210;2024-01-15T01:17:24;25.27;;;11.20;;
19605;SDS011;9950;50.168;8.210;2024-01-15T01:19:52;25.92;;;10.70;;
19605;SDS011;9950;50.168;8.210;2024-01-15T01:22:19;29.27;;;11.40;;
19605;SDS011;9950;50.168;8.210;2024-01-15T01:24:47;24.48;;;8.55;;
19605;SDS011;9950;50.168;8.210;2024-01-15T01:27:14;31.05;;;10.50;;
19605;SDS011;9950;50.168;8.210;2024-01-15T01:29:42;32.40;;;12.70;;
19605;SDS011;9950;50.168;8.210;2024-01-15T01:32:09;28.38;;;10.93;;
19605;SDS011;9950;50.168;8.210;2024-01-15T01:34:39;24.65;;;11.02;;
19605;SDS011;9950;50.168;8.210;2024-01-15T01:37:07;32.10;;;11.93;;
19605;SDS011;9950;50.168;8.210;2024-01-15T01:39:34;35.78;;;11.38;;
19605;SDS011;9950;50.168;8.210;2024-01-15T01:42:03;30.48;;;10.30;;
19605;SDS011;9950;50.168;8.210;2024-01-15T01:44:30;25.92;;;10.57;;
19605;SDS011;9950;50.168;8.210;2024-01-15T01:46:57;24.88;;;10.40;;
19605;SDS011;9950;50.168;8.210;2024-01-15T01:49:25;30.60;;;9.65;;
19605;SDS011;9950;50.168;8.210;2024-01-15T01:51:53;30.33;;;11.38;;
19605;SDS011;9950;50.168;8.210;2024-01-15T01:54:23;29.55;;;11.27;;
19605;SDS011;9950;50.168;8.210;2024-01-15T01:56:51;24.08;;;8.43;;
19605;SDS011;9950;50.168;8.210;2024-01-15T01:59:20;27.42;;;10.10;;
19605;SDS011;9950;50.168;8.210;2024-01-15T02:01:47;23.20;;;10.13;;
19605;SDS011;9950;50.168;8.210;2024-01-15T02:04:15;27.73;;;10.98;;
19605;SDS011;9950;50.168;8.210;2024-01-15T02:06:42;28.90;;;10.35;;
19605;SDS011;9950;50.168;8.210;2024-01-15T02:09:09;25.85;;;10.40;;
19605;SDS011;9950;50.168;8.210;2024-01-15T02:11:36;25.83;;;9.65;;
19605;SDS011;9950;50.168;8.210;2024-01-15T02:14:03;25.02;;;10.43;;
19605;SDS011;9950;50.168;8.210;2024-01-15T02:16:32;22.33;;;9.55;;
19605;SDS011;9950;50.168;8.210;2024-01-15T02:18:59;31.77;;;10.75;;
19605;SDS011;9950;50.168;8.210;2024-01-15T02:21:27;23.00;;;9.88;;
19605;SDS011;9950;50.168;8.210;2024-01-15T02:23:55;30.58;;;11.93;;
19605;SDS011;9950;50.168;8.210;2024-01-15T02:26:22;29.20;;;10.23;;
19605;SDS011;9950;50.168;8.210;2024-01-15T02:28:49;27.70;;;10.13;;
19605;SDS011;9950;50.168;8.210;2024-01-15T02:31:17;27.38;;;10.18;;
19605;SDS011;9950;50.168;8.210;2024-01-15T02:33:44;24.67;;;9.52;;
19605;SDS011;9950;50.168;8.210;2024-01-15T02:36:12;26.33;;;10.32;;
19605;SDS011;9950;50.168;8.210;2024-01-15T02:38:39;29.98;;;9.88;;
19605;SDS011;9950;50.168;8.210;2024-01-15T02:41:07;33.00;;;12.48;;
19605;SDS011;9950;50.168;8.210;2024-01-15T02:43:34;23.90;;;9.13;;
19605;SDS011;9950;50.168;8.210;2024-01-15T02:46:01;24.15;;;10.25;;
19605;SDS011;9950;50.168;8.210;2024-01-15T02:48:29;31.45;;;10.90;;
19605;SDS011;9950;50.168;8.210;2024-01-15T02:50:56;24.73;;;10.10;;
19605;SDS011;9950;50.168;8.210;2024-01-15T02:53:23;22.23;;;10.32;;
19605;SDS011;9950;50.168;8.210;2024-01-15T02:55:50;25.48;;;9.23;;
19605;SDS011;9950;50.168;8.210;2024-01-15T02:58:19;27.58;;;10.10;;
19605;SDS011;9950;50.168;8.210;2024-01-15T03:00:46;23.80;;;9.25;;
19605;SDS011;9950;50.168;8.210;2024-01-15T03:03:13;28.85;;;10.98;;
19605;SDS011;9950;50.168;8.210;2024-01-15T03:05:40;29.48;;;9.98;;
19605;SDS011;9950;50.168;8.210;2024-01-15T03:08:07;29.42;;;10.68;;
19605;SDS011;9950;50.168;8.210;2024-01-15T03:10:34;27.48;;;10.55;;
19605;SDS011;9950;50.168;8.210;2024-01-15T03:13:02;27.90;;;10.20;;
19605;SDS011;9950;50.168;8.210;2024-01-15T03:15:30;25.17;;;9.38;;
19605;SDS011;9950;50.168;8.210;2024-01-15T03:17:57;31.83;;;10.98;;
19605;SDS011;9950;50.168;8.210;2024-01-15T03:20:24;25.67;;;9.73;;
19605;SDS011;9950;50.168;8.210;2024-01-15T03:22:52;26.50;;;9.32;;
19605;SDS011;9950;50.168;8.210;2024-01-15T03:25:19;24.70;;;9.90;;
19605;SDS011;9950;50.168;8.210;2024-01-15T03:27:46;26.73;;;12.07;;
19605;SDS011;9950;50.168;8.210;2024-01-15T03:30:13;26.52;;;10.35;;
19605;SDS011;9950;50.168;8.210;2024-01-15T03:32:42;29.20;;;10.63;;
19605;SDS011;9950;50.168;8.210;2024-01-15T03:35:09;27.90;;;9.77;;
19605;SDS011;9950;50.168;8.210;2024-01-15T03:37:36;29.35;;;10.75;;
19605;SDS011;9950;50.168;8.210;2024-01-15T03:40:03;26.10;;;9.85;;
19605;SDS011;9950;50.168;8.210;2024-01-15T03:42:31;27.27;;;9.98;;
19605;SDS011;9950;50.168;8.210;2024-01-15T03:44:58;25.60;;;9.43;;
19605;SDS011;9950;50.168;8.210;2024-01-15T03:47:25;23.20;;;9.50;;
19605;SDS011;9950;50.168;8.210;2024-01-15T03:49:54;22.23;;;9.13;;
19605;SDS011;9950;50.168;8.210;2024-01-15T03:52:21;34.45;;;11.77;;
19605;SDS011;9950;50.168;8.210;2024-01-15T03:54:48;29.20;;;11.18;;
19605;SDS011;9950;50.168;8.210;2024-01-15T03:57:15;28.60;;;10.80;;
19605;SDS011;9950;50.168;8.210;2024-01-15T03:59:43;27.40;;;11.20;;
19605;SDS011;9950;50.168;8.210;2024-01-15T04:02:12;29.17;;;10.13;;
19605;SDS011;9950;50.168;8.210;2024-01-15T04:04:40;25.58;;;9.88;;
19605;SDS011;9950;50.168;8.210;2024-01-15T04:07:09;30.63;;;11.15;;
19605;SDS011;9950;50.168;8.210;2024-01-15T04:09:36;28.27;;;10.05;;
19605;SDS011;9950;50.168;8.210;2024-01-15T04:12:04;28.77;;;9.82;;
19605;SDS011;9950;50.168;8.210;2024-01-15T04:14:31;32.67;;;11.02;;
19605;SDS011;9950;50.168;8.210;2024-01-15T04:16:58;25.83;;;10.32;;
19605;SDS011;9950;50.168;8.210;2024-01-15T04:19:25;27.33;;;10.70;;
19605;SDS011;9950;50.168;8.210;2024-01-15T04:21:52;28.05;;;9.98;;
19605;SDS011;9950;50.168;8.210;2024-01-15T04:24:21;27.27;;;11.45;;
19605;SDS011;9950;50.168;8.210;2024-01-15T04:26:48;27.80;;;10.27;;
19605;SDS011;9950;50.168;8.210;2024-01-15T04:29:15;28.75;;;10.95;;
19605;SDS011;9950;50.168;8.210;2024-01-15T04:31:42;30.88;;;11.43;;
19605;SDS011;9950;50.168;8.210;2024-01-15T04:34:09;29.73;;;10.98;;
19605;SDS011;9950;50.168;8.210;2024-01-15T04:36:38;32.60;;;13.02;;
19605;SDS011;9950;50.168;8.210;2024-01-15T04:39:06;30.02;;;12.05;;
19605;SDS011;9950;50.168;8.210;2024-01-15T04:41:34;34.15;;;11.18;;
19605;SDS011;9950;50.168;8.210;2024-01-15T04:44:01;27.70;;;9.77;;
19605;SDS011;9950;50.168;8.210;2024-01-15T04:46:28;31.90;;;11.20;;
19605;SDS011;9950;50.168;8.210;2024-01-15T04:48:56;26.75;;;10.55;;
19605;SDS011;9950;50.168;8.210;2024-01-15T04:51:23;29.35;;;12.50;;
19605;SDS011;9950;50.168;8.210;2024-01-15T04:53:50;34.10;;;11.98;;
19605;SDS011;9950;50.168;8.210;2024-01-15T04:56:17;34.40;;;12.07;;
19605;SDS011;9950;50.168;8.210;2024-01-15T04:58:46;32.58;;;11.32;;
19605;SDS011;9950;50.168;8.210;2024-01-15T05:01:13;29.65;;;11.73;;
19605;SDS011;9950;50.168;8.210;2024-01-15T05:03:42;28.02;;;10.90;;
19605;SDS011;9950;50.168;8.210;2024-01-15T05:06:09;33.03;;;12.95;;
19605;SDS011;9950;50.168;8.210;2024-01-15T05:08:36;31.88;;;11.40;;
19605;SDS011;9950;50.168;8.210;2024-01-15T05:11:04;29.88;;;11.90;;
19605;SDS011;9950;50.168;8.210;2024-01-15T05:13:31;29.80;;;11.05;;
19605;SDS011;9950;50.168;8.210;2024-01-15T05:15:59;27.35;;;9.75;;
19605;SDS011;9950;50.168;8.210;2024-01-15T05:18:27;27.98;;;10.35;;
19605;SDS011;9950;50.168;8.210;2024-01-15T05:20:54;28.88;;;9.93;;
19605;SDS011;9950;50.168;8.210;2024-01-15T05:23:21;32.38;;;11.95;;
19605;SDS011;9950;50.168;8.210;2024-01-15T05:25:48;31.85;;;11.20;;
19605;SDS011;9950;50.168;8.210;2024-01-15T05:28:15;33.83;;;11.93;;
19605;SDS011;9950;50.168;8.210;2024-01-15T05:30:42;27.27;;;10.25;;
19605;SDS011;9950;50.168;8.210;2024-01-15T05:33:11;25.05;;;10.52;;
19605;SDS011;9950;50.168;8.210;2024-01-15T05:35:38;28.17;;;11.18;;
19605;SDS011;9950;50.168;8.210;2024-01-15T05:38:05;23.73;;;10.23;;
19605;SDS011;9950;50.168;8.210;2024-01-15T05:40:32;30.35;;;10.60;;
19605;SDS011;9950;50.168;8.210;2024-01-15T05:42:59;27.95;;;9.90;;
19605;SDS011;9950;50.168;8.210;2024-01-15T05:45:27;29.52;;;10.43;;
19605;SDS011;9950;50.168;8.210;2024-01-15T05:47:54;26.80;;;10.68;;
19605;SDS011;9950;50.168;8.210;2024-01-15T05:50:22;26.52;;;10.80;;
19605;SDS011;9950;50.168;8.210;2024-01-15T05:52:49;29.90;;;10.52;;
19605;SDS011;9950;50.168;8.210;2024-01-15T05:55:17;34.50;;;12.85;;
19605;SDS011;9950;50.168;8.210;2024-01-15T05:57:44;28.83;;;11.43;;
19605;SDS011;9950;50.168;8.210;2024-01-15T06:00:11;27.05;;;11.68;;
19605;SDS011;9950;50.168;8.210;2024-01-15T06:02:39;29.98;;;10.95;;
19605;SDS011;9950;50.168;8.210;2024-01-15T06:05:06;37.58;;;12.50;;
19605;SDS011;9950;50.168;8.210;2024-01-15T06:07:34;33.63;;;12.75;;
19605;SDS011;9950;50.168;8.210;2024-01-15T06:10:02;33.03;;;11.65;;
19605;SDS011;9950;50.168;8.210;2024-01-15T06:12:29;34.70;;;11.68;;
19605;SDS011;9950;50.168;8.210;2024-01-15T06:14:57;29.88;;;11.73;;
19605;SDS011;9950;50.168;8.210;2024-01-15T06:17:24;39.35;;;13.57;;
19605;SDS011;9950;50.168;8.210;2024-01-15T06:19:51;33.72;;;13.18;;
19605;SDS011;9950;50.168;8.210;2024-01-15T06:22:18;31.67;;;11.45;;
19605;SDS011;9950;50.168;8.210;2024-01-15T06:24:47;40.45;;;13.07;;
19605;SDS011;9950;50.168;8.210;2024-01-15T06:27:14;33.50;;;12.55;;
19605;SDS011;9950;50.168;8.210;2024-01-15T06:29:44;37.58;;;12.93;;
19605;SDS011;9950;50.168;8.210;2024-01-15T06:32:12;34.05;;;12.57;;
19605;SDS011;9950;50.168;8.210;2024-01-15T06:34:39;37.70;;;12.57;;
19605;SDS011;9950;50.168;8.210;2024-01-15T06:37:06;34.65;;;12.98;;
19605;SDS011;9950;50.168;8.210;2024-01-15T06:39:33;36.30;;;12.98;;
19605;SDS011;9950;50.168;8.210;2024-01-15T06:42:02;35.63;;;12.73;;
19605;SDS011;9950;50.168;8.210;2024-01-15T06:44:29;32.90;;;12.48;;
19605;SDS011;9950;50.168;8.210;2024-01-15T06:46:56;33.72;;;13.07;;
19605;SDS011;9950;50.168;8.210;2024-01-15T06:49:27;30.98;;;12.27;;
19605;SDS011;9950;50.168;8.210;2024-01-15T06:51:54;38.10;;;13.63;;
19605;SDS011;9950;50.168;8.210;2024-01-15T06:54:21;38.88;;;13.00;;
19605;SDS011;9950;50.168;8.210;2024-01-15T06:56:49;31.35;;;13.02;;
19605;SDS011;9950;50.168;8.210;2024-01-15T06:59:17;38.45;;;13.13;;
19605;SDS011;9950;50.168;8.210;2024-01-15T07:01:44;27.98;;;11.18;;
19605;SDS011;9950;50.168;8.210;2024-01-15T07:04:12;29.85;;;12.23;;
19605;SDS011;9950;50.168;8.210;2024-01-15T07:06:40;33.55;;;13.23;;
19605;SDS011;9950;50.168;8.210;2024-01-15T07:09:07;32.78;;;13.57;;
19605;SDS011;9950;50.168;8.210;2024-01-15T07:11:36;33.58;;;12.75;;
19605;SDS011;9950;50.168;8.210;2024-01-15T07:14:03;28.02;;;10.88;;
19605;SDS011;9950;50.168;8.210;2024-01-15T07:16:32;39.13;;;13.85;;
19605;SDS011;9950;50.168;8.210;2024-01-15T07:18:59;29.35;;;12.20;;
19605;SDS011;9950;50.168;8.210;2024-01-15T07:21:26;33.65;;;13.07;;
19605;SDS011;9950;50.168;8.210;2024-01-15T07:23:53;37.63;;;12.98;;
19605;SDS011;9950;50.168;8.210;2024-01-15T07:26:20;31.10;;;12.15;;
19605;SDS011;9950;50.168;8.210;2024-01-15T07:28:47;33.20;;;12.23;;
19605;SDS011;9950;50.168;8.210;2024-01-15T07:31:15;32.55;;;12.48;;
19605;SDS011;9950;50.168;8.210;2024-01-15T07:33:43;35.33;;;12.57;;
19605;SDS011;9950;50.168;8.210;2024-01-15T07:36:11;29.85;;;11.85;;
19605;SDS011;9950;50.168;8.210;2024-01-15T07:38:38;32.08;;;12.40;;
19605;SDS011;9950;50.168;8.210;2024-01-15T07:41:05;36.67;;;12.85;;
19605;SDS011;9950;50.168;8.210;2024-01-15T07:43:33;35.22;;;12.70;;
19605;SDS011;9950;50.168;8.210;2024-01-15T07:46:00;32.70;;;12.40;;
19605;SDS011;9950;50.168;8.210;2024-01-15T07:48:27;36.60;;;12.50;;
19605;SDS011;9950;50.168;8.210;2024-01-15T07:50:55;32.65;;;12.70;;
19605;SDS011;9950;50.168;8.210;2024-01-15T07:53:23;33.35;;;12.63;;
19605;SDS011;9950;50.168;8.210;2024-01-15T07:55:50;37.28;;;13.43;;
19605;SDS011;9950;50.168;8.210;2024-01-15T07:58:17;32.13;;;12.98;;
19605;SDS011;9950;50.168;8.210;2024-01-15T08:00:44;35.35;;;13.43;;
19605;SDS011;9950;50.168;8.210;2024-01-15T08:03:11;36.20;;;13.75;;
19605;SDS011;9950;50.168;8.210;2024-01-15T08:05:40;33.30;;;12.25;;
19605;SDS011;9950;50.168;8.210;2024-01-15T08:08:08;31.90;;;13.18;;
19605;SDS011;9950;50.168;8.210;2024-01-15T08:10:35;38.67;;;13.20;;
19605;SDS011;9950;50.168;8.210;2024-01-15T08:13:03;36.80;;;13.48;;
19605;SDS011;9950;50.168;8.210;2024-01-15T08:15:33;36.05;;;13.20;;
19605;SDS011;9950;50.168;8.210;2024-01-15T08:18:00;31.42;;;12.13;;
19605;SDS011;9950;50.168;8.210;2024-01-15T08:20:27;31.48;;;12.38;;
19605;SDS011;9950;50.168;8.210;2024-01-15T08:22:55;32.47;;;12.50;;
19605;SDS011;9950;50.168;8.210;2024-01-15T08:25:24;32.20;;;13.23;;
19605;SDS011;9950;50.168;8.210;2024-01-15T08:27:51;31.88;;;11.27;;
19605;SDS011;9950;50.168;8.210;2024-01-15T08:30:19;35.88;;;13.57;;
19605;SDS011;9950;50.168;8.210;2024-01-15T08:32:49;35.25;;;13.18;;
19605;SDS011;9950;50.168;8.210;2024-01-15T08:35:17;31.67;;;12.23;;
19605;SDS011;9950;50.168;8.210;2024-01-15T08:37:47;34.85;;;12.88;;
19605;SDS011;9950;50.168;8.210;2024-01-15T08:40:14;28.95;;;11.85;;
19605;SDS011;9950;50.168;8.210;2024-01-15T08:42:43;32.67;;;12.90;;
19605;SDS011;9950;50.168;8.210;2024-01-15T08:45:10;31.70;;;12.30;;
19605;SDS011;9950;50.168;8.210;2024-01-15T08:47:38;32.63;;;13.25;;
19605;SDS011;9950;50.168;8.210;2024-01-15T08:50:06;27.45;;;12.00;;
19605;SDS011;9950;50.168;8.210;2024-01-15T08:52:34;33.67;;;11.85;;
19605;SDS011;9950;50.168;8.210;2024-01-15T08:55:02;30.27;;;12.50;;
19605;SDS011;9950;50.168;8.210;2024-01-15T08:57:30;33.80;;;13.90;;
19605;SDS011;9950;50.168;8.210;2024-01-15T08:59:59;33.75;;;12.05;;
19605;SDS011;9950;50.168;8.210;2024-01-15T09:02:26;34.60;;;13.13;;
19605;SDS011;9950;50.168;8.210;2024-01-15T09:04:54;31.67;;;12.25;;
19605;SDS011;9950;50.168;8.210;2024-01-15T09:07:21;36.17;;;12.43;;
19605;SDS011;9950;50.168;8.210;2024-01-15T09:09:49;31.00;;;12.60;;
19605;SDS011;9950;50.168;8.210;2024-01-15T09:12:16;29.42;;;12.25;;
19605;SDS011;9950;50.168;8.210;2024-01-15T09:14:45;29.83;;;11.82;;
19605;SDS011;9950;50.168;8.210;2024-01-15T09:17:14;27.67;;;11.90;;
19605;SDS011;9950;50.168;8.210;2024-01-15T09:19:41;27.08;;;10.95;;
19605;SDS011;9950;50.168;8.210;2024-01-15T09:22:09;24.15;;;10.45;;
19605;SDS011;9950;50.168;8.210;2024-01-15T09:24:36;31.35;;;12.45;;
19605;SDS011;9950;50.168;8.210;2024-01-15T09:27:03;29.52;;;11.63;;
19605;SDS011;9950;50.168;8.210;2024-01-15T09:29:30;29.52;;;12.52;;
19605;SDS011;9950;50.168;8.210;2024-01-15T09:31:57;29.58;;;11.57;;
19605;SDS011;9950;50.168;8.210;2024-01-15T09:34:26;25.95;;;11.05;;
19605;SDS011;9950;50.168;8.210;2024-01-15T09:36:53;26.85;;;11.27;;
19605;SDS011;9950;50.168;8.210;2024-01-15T09:39:20;20.40;;;9.52;;
19605;SDS011;9950;50.168;8.210;2024-01-15T09:41:48;26.95;;;11.00;;
19605;SDS011;9950;50.168;8.210;2024-01-15T09:44:16;26.38;;;11.45;;
19605;SDS011;9950;50.168;8.210;2024-01-15T09:46:43;26.20;;;11.25;;
19605;SDS011;9950;50.168;8.210;2024-01-15T09:49:11;24.73;;;10.85;;
19605;SDS011;9950;50.168;8.210;2024-01-15T09:51:39;22.45;;;10.50;;
19605;SDS011;9950;50.168;8.210;2024-01-15T09:54:07;23.88;;;10.30;;
19605;SDS011;9950;50.168;8.210;2024-01-15T09:56:35;25.17;;;10.50;;
19605;SDS011;9950;50.168;8.210;2024-01-15T09:59:02;19.90;;;9.05;;
19605;SDS011;9950;50.168;8.210;2024-01-15T10:01:30;23.52;;;9.43;;
19605;SDS011;9950;50.168;8.210;2024-01-15T10:03:58;21.88;;;9.65;;
19605;SDS011;9950;50.168;8.210;2024-01-15T10:06:26;21.27;;;9.32;;
19605;SDS011;9950;50.168;8.210;2024-01-15T10:08:55;22.15;;;9.85;;
19605;SDS011;9950;50.168;8.210;2024-01-15T10:11:24;23.45;;;9.38;;
19605;SDS011;9950;50.168;8.210;2024-01-15T10:13:51;21.55;;;9.20;;
19605;SDS011;9950;50.168;8.210;2024-01-15T10:16:19;22.23;;;9.18;;
19605;SDS011;9950;50.168;8.210;2024-01-15T10:18:47;19.48;;;9.20;;
19605;SDS011;9950;50.168;8.210;2024-01-15T10:21:14;19.95;;;9.02;;
19605;SDS011;9950;50.168;8.210;2024-01-15T10:23:41;23.58;;;8.93;;
19605;SDS011;9950;50.168;8.210;2024-01-15T10:26:10;16.90;;;9.18;;
19605;SDS011;9950;50.168;8.210;2024-01-15T10:28:38;16.83;;;7.80;;
19605;SDS011;9950;50.168;8.210;2024-01-15T10:31:05;17.10;;;8.63;;
19605;SDS011;9950;50.168;8.210;2024-01-15T10:33:32;21.73;;;9.10;;
19605;SDS011;9950;50.168;8.210;2024-01-15T10:35:59;18.23;;;8.18;;
19605;SDS011;9950;50.168;8.210;2024-01-15T10:38:29;19.98;;;8.95;;
19605;SDS011;9950;50.168;8.210;2024-01-15T10:40:56;21.10;;;10.02;;
19605;SDS011;9950;50.168;8.210;2024-01-15T10:43:25;16.83;;;8.60;;
19605;SDS011;9950;50.168;8.210;2024-01-15T10:45:52;21.75;;;9.95;;
19605;SDS011;9950;50.168;8.210;2024-01-15T10:48:19;18.33;;;8.85;;
19605;SDS011;9950;50.168;8.210;2024-01-15T10:50:47;19.40;;;8.77;;
19605;SDS011;9950;50.168;8.210;2024-01-15T10:53:17;17.50;;;8.73;;
19605;SDS011;9950;50.168;8.210;2024-01-15T10:55:44;19.17;;;8.68;;
19605;SDS011;9950;50.168;8.210;2024-01-15T10:58:13;19.88;;;8.73;;
19605;SDS011;9950;50.168;8.210;2024-01-15T11:00:43;15.05;;;7.75;;
19605;SDS011;9950;50.168;8.210;2024-01-15T11:03:10;17.65;;;7.65;;
19605;SDS011;9950;50.168;8.210;2024-01-15T11:05:38;17.15;;;8.77;;
19605;SDS011;9950;50.168;8.210;2024-01-15T11:08:05;18.88;;;7.97;;
19605;SDS011;9950;50.168;8.210;2024-01-15T11:10:39;16.67;;;8.35;;
19605;SDS011;9950;50.168;8.210;2024-01-15T11:13:10;16.25;;;8.07;;
19605;SDS011;9950;50.168;8.210;2024-01-15T11:16:00;18.35;;;9.02;;
19605;SDS011;9950;50.168;8.210;2024-01-15T11:18:28;16.20;;;7.60;;
19605;SDS011;9950;50.168;8.210;2024-01-15T11:23:42;18.90;;;9.07;;
19605;SDS011;9950;50.168;8.210;2024-01-15T11:28:53;14.88;;;6.20;;
19605;SDS011;9950;50.168;8.210;2024-01-15T11:31:26;17.35;;;7.75;;
19605;SDS011;9950;50.168;8.210;2024-01-15T11:33:53;16.40;;;8.13;;
19605;SDS011;9950;50.168;8.210;2024-01-15T11:36:21;15.23;;;7.95;;
19605;SDS011;9950;50.168;8.210;2024-01-15T11:38:48;14.77;;;7.25;;
19605;SDS011;9950;50.168;8.210;2024-01-15T11:41:15;14.63;;;7.38;;
19605;SDS011;9950;50.168;8.210;2024-01-15T11:43:42;16.67;;;7.65;;
19605;SDS011;9950;50.168;8.210;2024-01-15T11:46:10;17.35;;;7.97;;
19605;SDS011;9950;50.168;8.210;2024-01-15T11:48:43;14.80;;;7.65;;
19605;SDS011;9950;50.168;8.210;2024-01-15T11:51:11;17.00;;;7.90;;
19605;SDS011;9950;50.168;8.210;2024-01-15T11:53:40;15.77;;;7.63;;
19605;SDS011;9950;50.168;8.210;2024-01-15T11:56:11;17.27;;;7.57;;
19605;SDS011;9950;50.168;8.210;2024-01-15T11:58:40;18.13;;;7.53;;
19605;SDS011;9950;50.168;8.210;2024-01-15T12:01:08;13.90;;;7.18;;
19605;SDS011;9950;50.168;8.210;2024-01-15T12:03:35;13.98;;;6.80;;
19605;SDS011;9950;50.168;8.210;2024-01-15T12:06:06;14.70;;;6.93;;
19605;SDS011;9950;50.168;8.210;2024-01-15T12:08:33;15.55;;;7.53;;
19605;SDS011;9950;50.168;8.210;2024-01-15T12:11:01;11.77;;;5.93;;
19605;SDS011;9950;50.168;8.210;2024-01-15T12:13:31;14.25;;;6.70;;
19605;SDS011;9950;50.168;8.210;2024-01-15T12:15:59;14.48;;;6.65;;
19605;SDS011;9950;50.168;8.210;2024-01-15T12:18:29;13.52;;;7.05;;
19605;SDS011;9950;50.168;8.210;2024-01-15T12:20:56;15.43;;;7.43;;
19605;SDS011;9950;50.168;8.210;2024-01-15T12:23:25;16.33;;;7.30;;
19605;SDS011;9950;50.168;8.210;2024-01-15T12:25:52;13.18;;;6.88;;
19605;SDS011;9950;50.168;8.210;2024-01-15T12:28:20;13.65;;;6.32;;
19605;SDS011;9950;50.168;8.210;2024-01-15T12:30:47;14.70;;;7.20;;
19605;SDS011;9950;50.168;8.210;2024-01-15T12:33:17;15.30;;;7.55;;
19605;SDS011;9950;50.168;8.210;2024-01-15T12:35:45;16.27;;;7.65;;
19605;SDS011;9950;50.168;8.210;2024-01-15T12:38:12;14.05;;;7.35;;
19605;SDS011;9950;50.168;8.210;2024-01-15T12:40:40;13.82;;;7.13;;
19605;SDS011;9950;50.168;8.210;2024-01-15T12:43:12;13.50;;;7.15;;
19605;SDS011;9950;50.168;8.210;2024-01-15T12:45:40;14.68;;;7.63;;
19605;SDS011;9950;50.168;8.210;2024-01-15T12:48:08;12.95;;;6.53;;
19605;SDS011;9950;50.168;8.210;2024-01-15T12:50:35;16.38;;;7.22;;
19605;SDS011;9950;50.168;8.210;2024-01-15T12:53:03;16.10;;;7.85;;
19605;SDS011;9950;50.168;8.210;2024-01-15T12:55:30;13.73;;;6.72;;
19605;SDS011;9950;50.168;8.210;2024-01-15T12:57:58;16.92;;;7.63;;
19605;SDS011;9950;50.168;8.210;2024-01-15T13:00:26;14.18;;;6.55;;
19605;SDS011;9950;50.168;8.210;2024-01-15T13:02:53;14.57;;;6.93;;
19605;SDS011;9950;50.168;8.210;2024-01-15T13:05:22;15.15;;;7.50;;
19605;SDS011;9950;50.168;8.210;2024-01-15T13:07:49;13.40;;;7.53;;
19605;SDS011;9950;50.168;8.210;2024-01-15T13:10:16;17.08;;;7.18;;
19605;SDS011;9950;50.168;8.210;2024-01-15T13:12:44;17.33;;;8.10;;
19605;SDS011;9950;50.168;8.210;2024-01-15T13:15:12;14.50;;;7.30;;
19605;SDS011;9950;50.168;8.210;2024-01-15T13:17:40;16.73;;;7.35;;
19605;SDS011;9950;50.168;8.210;2024-01-15T13:20:07;19.65;;;8.00;;
19605;SDS011;9950;50.168;8.210;2024-01-15T13:22:36;15.43;;;7.35;;
19605;SDS011;9950;50.168;8.210;2024-01-15T13:25:06;16.60;;;7.00;;
19605;SDS011;9950;50.168;8.210;2024-01-15T13:27:34;17.75;;;6.93;;
19605;SDS011;9950;50.168;8.210;2024-01-15T13:30:01;15.38;;;7.80;;
19605;SDS011;9950;50.168;8.210;2024-01-15T13:32:30;13.70;;;7.32;;
19605;SDS011;9950;50.168;8.210;2024-01-15T13:34:57;17.20;;;7.22;;
19605;SDS011;9950;50.168;8.210;2024-01-15T13:37:25;15.98;;;7.78;;
19605;SDS011;9950;50.168;8.210;2024-01-15T13:39:54;16.65;;;7.70;;
19605;SDS011;9950;50.168;8.210;2024-01-15T13:42:21;16.38;;;7.53;;
19605;SDS011;9950;50.168;8.210;2024-01-15T13:44:48;16.65;;;8.63;;
19605;SDS011;9950;50.168;8.210;2024-01-15T13:47:16;15.15;;;6.55;;
19605;SDS011;9950;50.168;8.210;2024-01-15T13:49:44;13.05;;;6.15;;
19605;SDS011;9950;50.168;8.210;2024-01-15T13:52:11;11.13;;;5.35;;
19605;SDS011;9950;50.168;8.210;2024-01-15T13:54:38;11.80;;;5.63;;
19605;SDS011;9950;50.168;8.210;2024-01-15T13:57:06;11.65;;;5.22;;
19605;SDS011;9950;50.168;8.210;2024-01-15T13:59:33;9.98;;;5.32;;
19605;SDS011;9950;50.168;8.210;2024-01-15T14:02:00;11.90;;;6.32;;
19605;SDS011;9950;50.168;8.210;2024-01-15T14:04:27;12.85;;;5.40;;
19605;SDS011;9950;50.168;8.210;2024-01-15T14:06:56;11.20;;;5.68;;
19605;SDS011;9950;50.168;8.210;2024-01-15T14:09:24;18.63;;;8.82;;
19605;SDS011;9950;50.168;8.210;2024-01-15T14:11:51;11.85;;;6.28;;
19605;SDS011;9950;50.168;8.210;2024-01-15T14:14:19;11.80;;;5.85;;
19605;SDS011;9950;50.168;8.210;2024-01-15T14:16:46;13.98;;;6.72;;
19605;SDS011;9950;50.168;8.210;2024-01-15T14:19:13;10.45;;;5.65;;
19605;SDS011;9950;50.168;8.210;2024-01-15T14:21:41;10.27;;;5.47;;
19605;SDS011;9950;50.168;8.210;2024-01-15T14:24:09;13.27;;;5.93;;
19605;SDS011;9950;50.168;8.210;2024-01-15T14:26:36;12.48;;;6.13;;
19605;SDS011;9950;50.168;8.210;2024-01-15T14:29:03;13.00;;;6.20;;
19605;SDS011;9950;50.168;8.210;2024-01-15T14:31:31;13.27;;;6.35;;
19605;SDS011;9950;50.168;8.210;2024-01-15T14:33:59;10.23;;;6.13;;
19605;SDS011;9950;50.168;8.210;2024-01-15T14:36:28;11.15;;;5.85;;
19605;SDS011;9950;50.168;8.210;2024-01-15T14:38:55;11.38;;;5.57;;
19605;SDS011;9950;50.168;8.210;2024-01-15T14:41:23;10.15;;;5.35;;
19605;SDS011;9950;50.168;8.210;2024-01-15T14:43:51;13.20;;;5.45;;
19605;SDS011;9950;50.168;8.210;2024-01-15T14:46:18;11.07;;;5.30;;
19605;SDS011;9950;50.168;8.210;2024-01-15T14:48:46;10.60;;;5.28;;